Time,TemperatureF,DewpointF,PressureIn,WindDirection,WindDirectionDegrees,WindSpeedMPH,WindSpeedGustMPH,Humidity,HourlyPrecipIn,Conditions,Clouds,dailyrainin,SoftwareType,DateUTC
2013-11-07 00:02:00,52.3,26.2,30.16,North,357,0.0,0.0,36,0.00,,,0.00,meteohub,2013-11-07 08:02:00,
2013-11-07 00:22:00,51.4,26.1,30.16,North,357,0.0,0.0,37,0.00,,,0.00,meteohub,2013-11-07 08:22:00,
2013-11-07 00:42:00,50.4,25.0,30.16,North,357,0.0,0.0,37,0.00,,,0.00,meteohub,2013-11-07 08:42:00,
2013-11-07 01:02:00,50.2,25.0,30.16,North,357,0.0,0.0,37,0.00,,,0.00,meteohub,2013-11-07 09:02:00,
2013-11-07 01:22:00,49.6,24.4,30.16,North,357,0.0,0.0,37,0.00,,,0.00,meteohub,2013-11-07 09:22:00,
2013-11-07 01:42:00,48.7,23.5,30.16,North,357,0.0,0.0,37,0.00,,,0.00,meteohub,2013-11-07 09:42:00,
2013-11-07 02:02:00,48.6,23.5,30.16,North,357,0.0,0.0,37,0.00,,,0.00,meteohub,2013-11-07 10:02:00,
2013-11-07 02:22:00,48.0,23.5,30.13,North,357,0.0,0.0,38,0.00,,,0.00,meteohub,2013-11-07 10:22:00,
2013-11-07 02:42:00,47.5,23.2,30.13,North,357,0.0,0.0,38,0.00,,,0.00,meteohub,2013-11-07 10:42:00,
2013-11-07 03:02:00,47.3,23.0,30.13,North,357,0.0,0.0,38,0.00,,,0.00,meteohub,2013-11-07 11:02:00,
2013-11-07 03:22:00,46.8,22.5,30.16,North,357,0.0,0.0,38,0.00,,,0.00,meteohub,2013-11-07 11:22:00,
2013-11-07 03:42:00,46.2,21.9,30.13,North,357,0.0,0.0,38,0.00,,,0.00,meteohub,2013-11-07 11:42:00,
2013-11-07 04:02:00,46.0,21.9,30.13,North,357,0.0,0.0,38,0.00,,,0.00,meteohub,2013-11-07 12:02:00,
2013-11-07 04:22:00,45.9,21.7,30.16,North,357,0.0,0.0,38,0.00,,,0.00,meteohub,2013-11-07 12:22:00,
2013-11-07 04:42:00,46.4,22.1,30.16,North,357,0.0,0.0,38,0.00,,,0.00,meteohub,2013-11-07 12:42:00,
2013-11-07 05:02:00,46.0,22.5,30.13,North,357,0.0,0.0,39,0.00,,,0.00,meteohub,2013-11-07 13:02:00,
2013-11-07 05:22:00,45.3,21.7,30.16,North,357,0.0,0.0,39,0.00,,,0.00,meteohub,2013-11-07 13:22:00,
2013-11-07 05:42:00,45.9,22.8,30.16,North,357,0.0,0.0,40,0.00,,,0.00,meteohub,2013-11-07 13:42:00,
2013-11-07 06:02:00,46.0,23.0,30.16,North,357,0.0,0.0,40,0.00,,,0.00,meteohub,2013-11-07 14:02:00,
2013-11-07 06:22:00,45.9,23.5,30.16,North,357,0.0,0.0,41,0.00,,,0.00,meteohub,2013-11-07 14:22:00,
2013-11-07 06:42:00,46.8,24.3,30.16,North,357,0.0,0.0,41,0.00,,,0.00,meteohub,2013-11-07 14:42:00,
2013-11-07 07:02:00,47.5,25.0,30.16,North,357,0.0,0.0,41,0.00,,,0.00,meteohub,2013-11-07 15:02:00,
2013-11-07 07:22:00,48.6,25.3,30.16,North,357,0.0,0.0,40,0.00,,,0.00,meteohub,2013-11-07 15:22:00,
2013-11-07 07:42:00,50.9,27.5,30.16,North,357,0.0,0.0,40,0.00,,,0.00,meteohub,2013-11-07 15:42:00,
2013-11-07 08:02:00,54.5,29.5,30.16,North,357,0.0,0.0,38,0.00,,,0.00,meteohub,2013-11-07 16:02:00,
2013-11-07 08:22:00,59.2,31.5,30.19,NW,321,4.0,4.0,35,0.00,,,0.00,meteohub,2013-11-07 16:22:00,
2013-11-07 08:42:00,62.4,33.6,30.16,North,353,4.0,4.0,34,0.00,,,0.00,meteohub,2013-11-07 16:42:00,
2013-11-07 09:02:00,65.5,35.6,30.19,NNE,26,0.0,3.0,33,0.00,,,0.00,meteohub,2013-11-07 17:02:00,
2013-11-07 09:22:00,67.5,37.4,30.19,North,0,0.0,0.0,33,0.00,,,0.00,meteohub,2013-11-07 17:22:00,
2013-11-07 09:42:00,70.5,39.2,30.19,North,3,0.0,0.0,32,0.00,,,0.00,meteohub,2013-11-07 17:42:00,
2013-11-07 10:02:00,73.0,41.4,30.19,NNE,33,0.0,0.0,32,0.00,,,0.00,meteohub,2013-11-07 18:02:00,
2013-11-07 10:22:00,75.0,42.3,30.19,West,259,0.0,4.0,31,0.00,,,0.00,meteohub,2013-11-07 18:22:00,
2013-11-07 10:42:00,76.5,43.5,30.16,WNW,300,0.0,4.0,31,0.00,,,0.00,meteohub,2013-11-07 18:42:00,
2013-11-07 11:02:00,78.8,44.8,30.16,ENE,73,0.0,4.0,30,0.00,,,0.00,meteohub,2013-11-07 19:02:00,
2013-11-07 11:22:00,81.3,46.9,30.16,NW,304,0.0,5.0,30,0.00,,,0.00,meteohub,2013-11-07 19:22:00,
2013-11-07 11:42:00,82.4,46.9,30.16,WSW,241,3.0,0.0,29,0.00,,,0.00,meteohub,2013-11-07 19:42:00,
2013-11-07 12:02:00,79.5,45.3,30.13,WSW,238,4.0,5.0,30,0.00,,,0.00,meteohub,2013-11-07 20:02:00,
2013-11-07 12:22:00,79.7,45.5,30.13,WSW,244,3.0,5.0,30,0.00,,,0.00,meteohub,2013-11-07 20:22:00,
2013-11-07 12:42:00,78.4,45.3,30.13,WSW,246,5.0,6.0,31,0.00,,,0.00,meteohub,2013-11-07 20:42:00,
2013-11-07 13:02:00,77.9,44.8,30.13,WSW,248,4.0,6.0,31,0.00,,,0.00,meteohub,2013-11-07 21:02:00,
2013-11-07 13:22:00,76.1,43.3,30.10,WSW,247,6.0,6.0,31,0.00,,,0.00,meteohub,2013-11-07 21:22:00,
2013-11-07 13:42:00,75.9,43.2,30.10,WSW,242,3.0,8.0,31,0.00,,,0.00,meteohub,2013-11-07 21:42:00,
2013-11-07 14:02:00,75.4,42.6,30.10,WSW,246,4.0,6.0,31,0.00,,,0.00,meteohub,2013-11-07 22:02:00,
2013-11-07 14:22:00,73.8,41.2,30.10,WSW,244,6.0,8.0,31,0.00,,,0.00,meteohub,2013-11-07 22:22:00,
2013-11-07 14:42:00,73.2,41.5,30.10,West,276,6.0,8.0,32,0.00,,,0.00,meteohub,2013-11-07 22:42:00,
2013-11-07 15:02:00,73.6,41.0,30.10,West,260,6.0,9.0,31,0.00,,,0.00,meteohub,2013-11-07 23:02:00,
2013-11-07 15:22:00,74.5,41.9,30.10,SW,236,3.0,9.0,31,0.00,,,0.00,meteohub,2013-11-07 23:22:00,
2013-11-07 15:42:00,75.0,42.3,30.10,West,262,4.0,8.0,31,0.00,,,0.00,meteohub,2013-11-07 23:42:00,
2013-11-07 16:02:00,73.6,41.0,30.10,West,281,6.0,10.0,31,0.00,,,0.00,meteohub,2013-11-08 00:02:00,
2013-11-07 16:22:00,70.2,38.8,30.10,WSW,241,6.0,8.0,32,0.00,,,0.00,meteohub,2013-11-08 00:22:00,
2013-11-07 16:42:00,68.5,38.3,30.10,WNW,303,2.0,6.0,33,0.00,,,0.00,meteohub,2013-11-08 00:42:00,
2013-11-07 17:02:00,68.5,38.3,30.10,NW,313,0.0,5.0,33,0.00,,,0.00,meteohub,2013-11-08 01:02:00,
2013-11-07 17:22:00,67.5,37.4,30.10,NW,313,0.0,0.0,33,0.00,,,0.00,meteohub,2013-11-08 01:22:00,
2013-11-07 17:42:00,66.0,36.1,30.10,NW,313,0.0,0.0,33,0.00,,,0.00,meteohub,2013-11-08 01:42:00,
2013-11-07 18:02:00,63.1,34.3,30.10,NNW,336,0.0,0.0,34,0.00,,,0.00,meteohub,2013-11-08 02:02:00,
2013-11-07 18:22:00,60.8,32.2,30.10,NNW,336,0.0,0.0,34,0.00,,,0.00,meteohub,2013-11-08 02:22:00,
2013-11-07 18:42:00,59.4,31.6,30.10,NNW,336,0.0,0.0,35,0.00,,,0.00,meteohub,2013-11-08 02:42:00,
2013-11-07 19:02:00,58.1,30.6,30.10,NNW,336,0.0,0.0,35,0.00,,,0.00,meteohub,2013-11-08 03:02:00,
2013-11-07 19:22:00,57.7,30.2,30.10,NNW,336,0.0,0.0,35,0.00,,,0.00,meteohub,2013-11-08 03:22:00,
2013-11-07 19:42:00,57.0,29.7,30.10,NNW,336,0.0,0.0,35,0.00,,,0.00,meteohub,2013-11-08 03:42:00,
2013-11-07 20:02:00,56.1,28.8,30.10,NNW,335,0.0,0.0,35,0.00,,,0.00,meteohub,2013-11-08 04:02:00,
2013-11-07 20:22:00,55.8,29.1,30.10,NNW,335,0.0,0.0,36,0.00,,,0.00,meteohub,2013-11-08 04:22:00,
2013-11-07 20:42:00,55.0,28.6,30.10,NNW,336,0.0,0.0,36,0.00,,,0.00,meteohub,2013-11-08 04:42:00,
2013-11-07 21:02:00,54.5,28.0,30.10,NNW,336,0.0,0.0,36,0.00,,,0.00,meteohub,2013-11-08 05:02:00,
2013-11-07 21:22:00,53.8,27.5,30.10,NNW,335,0.0,0.0,36,0.00,,,0.00,meteohub,2013-11-08 05:22:00,
2013-11-07 21:42:00,53.2,27.0,30.10,NNW,336,0.0,0.0,36,0.00,,,0.00,meteohub,2013-11-08 05:42:00,
2013-11-07 22:02:00,52.5,27.0,30.10,NNW,335,0.0,0.0,37,0.00,,,0.00,meteohub,2013-11-08 06:02:00,
2013-11-07 22:22:00,52.2,26.6,30.10,NNW,335,0.0,0.0,37,0.00,,,0.00,meteohub,2013-11-08 06:22:00,
2013-11-07 22:42:00,52.0,26.6,30.10,NNW,336,0.0,0.0,37,0.00,,,0.00,meteohub,2013-11-08 06:42:00,
2013-11-07 23:02:00,52.0,26.6,30.10,NNW,335,0.0,0.0,37,0.00,,,0.00,meteohub,2013-11-08 07:02:00,
2013-11-07 23:22:00,51.8,27.0,30.10,NNW,336,0.0,0.0,38,0.00,,,0.00,meteohub,2013-11-08 07:22:00,
2013-11-07 23:42:00,51.8,27.0,30.10,NNW,336,0.0,0.0,38,0.00,,,0.00,meteohub,2013-11-08 07:42:00,